sensor_id;sensor_type;location;lat;lon;timestamp;pressure;altitude;pressure_sealevel;temperature;humidity
8140;BME280;4111;50.972;7.072;2024-01-25T00:00:09;102292.53;;;10.33;89.52
8140;BME280;4111;50.972;7.072;2024-01-25T00:02:35;102283.50;;;10.26;89.60
8140;BME280;4111;50.972;7.072;2024-01-25T00:05:02;102270.56;;;10.28;89.99
8140;BME280;4111;50.972;7.072;2024-01-25T00:07:29;102261.78;;;10.26;90.17
8140;BME280;4111;50.972;7.072;2024-01-25T00:09:56;102258.44;;;10.24;90.24
8140;BME280;4111;50.972;7.072;2024-01-25T00:12:24;102264.75;;;10.31;90.43
8140;BME280;4111;50.972;7.072;2024-01-25T00:14:50;102261.81;;;10.32;90.31
8140;BME280;4111;50.972;7.072;2024-01-25T00:17:19;102270.19;;;10.31;90.36
8140;BME280;4111;50.972;7.072;2024-01-25T00:19:45;102264.72;;;10.24;90.45
8140;BME280;4111;50.972;7.072;2024-01-25T00:22:12;102267.22;;;10.26;90.78
8140;BME280;4111;50.972;7.072;2024-01-25T00:24:38;102270.13;;;10.24;90.94
8140;BME280;4111;50.972;7.072;2024-01-25T00:27:05;102268.50;;;10.30;90.90
8140;BME280;4111;50.972;7.072;2024-01-25T00:29:33;102276.47;;;10.31;91.04
8140;BME280;4111;50.972;7.072;2024-01-25T00:32:00;102274.78;;;10.30;90.86
8140;BME280;4111;50.972;7.072;2024-01-25T00:34:27;102272.25;;;10.29;91.27
8140;BME280;4111;50.972;7.072;2024-01-25T00:36:54;102272.66;;;10.26;91.21
8140;BME280;4111;50.972;7.072;2024-01-25T00:39:21;102278.09;;;10.26;91.32
8140;BME280;4111;50.972;7.072;2024-01-25T00:41:51;102285.81;;;10.22;91.70
8140;BME280;4111;50.972;7.072;2024-01-25T00:44:18;102279.75;;;10.20;91.77
8140;BME280;4111;50.972;7.072;2024-01-25T00:46:44;102278.47;;;10.23;92.17
8140;BME280;4111;50.972;7.072;2024-01-25T00:49:14;102275.56;;;10.24;92.05
8140;BME280;4111;50.972;7.072;2024-01-25T00:51:45;102277.44;;;10.24;91.87
8140;BME280;4111;50.972;7.072;2024-01-25T00:54:16;102276.81;;;10.22;91.96
8140;BME280;4111;50.972;7.072;2024-01-25T00:56:43;102276.81;;;10.22;92.20
8140;BME280;4111;50.972;7.072;2024-01-25T00:59:10;102282.88;;;10.24;92.39
8140;BME280;4111;50.972;7.072;2024-01-25T01:01:37;102288.13;;;10.25;92.37
8140;BME280;4111;50.972;7.072;2024-01-25T01:04:05;102291.03;;;10.24;91.95
8140;BME280;4111;50.972;7.072;2024-01-25T01:06:32;102287.06;;;10.20;92.27
8140;BME280;4111;50.972;7.072;2024-01-25T01:08:59;102281.81;;;10.11;92.31
8140;BME280;4111;50.972;7.072;2024-01-25T01:11:26;102299.78;;;10.12;93.00
8140;BME280;4111;50.972;7.072;2024-01-25T01:13:52;102298.09;;;10.11;93.03
8140;BME280;4111;50.972;7.072;2024-01-25T01:16:19;102300.19;;;10.16;92.80
8140;BME280;4111;50.972;7.072;2024-01-25T01:18:48;102302.72;;;10.18;92.45
8140;BME280;4111;50.972;7.072;2024-01-25T01:21:15;102297.69;;;10.15;92.54
8140;BME280;4111;50.972;7.072;2024-01-25T01:23:42;102314.16;;;10.06;92.84
8140;BME280;4111;50.972;7.072;2024-01-25T01:26:08;102301.41;;;10.07;92.88
8140;BME280;4111;50.972;7.072;2024-01-25T01:28:35;102305.00;;;10.07;92.84
8140;BME280;4111;50.972;7.072;2024-01-25T01:31:01;102307.72;;;10.07;92.77
8140;BME280;4111;50.972;7.072;2024-01-25T01:33:28;102305.38;;;10.04;92.46
8140;BME280;4111;50.972;7.072;2024-01-25T01:35:55;102310.19;;;10.02;93.13
8140;BME280;4111;50.972;7.072;2024-01-25T01:38:21;102312.50;;;10.05;93.10
8140;BME280;4111;50.972;7.072;2024-01-25T01:40:48;102313.97;;;10.01;93.05
8140;BME280;4111;50.972;7.072;2024-01-25T01:43:19;102313.09;;;9.94;93.00
8140;BME280;4111;50.972;7.072;2024-01-25T01:45:47;102310.31;;;9.81;93.43
8140;BME280;4111;50.972;7.072;2024-01-25T01:48:13;102307.16;;;9.77;93.34
8140;BME280;4111;50.972;7.072;2024-01-25T01:50:42;102309.88;;;9.77;93.56
8140;BME280;4111;50.972;7.072;2024-01-25T01:53:09;102304.25;;;9.79;93.73
8140;BME280;4111;50.972;7.072;2024-01-25T01:55:37;102304.69;;;9.76;93.74
8140;BME280;4111;50.972;7.072;2024-01-25T01:58:04;102307.53;;;9.67;93.92
8140;BME280;4111;50.972;7.072;2024-01-25T02:00:31;102303.81;;;9.68;94.12
8140;BME280;4111;50.972;7.072;2024-01-25T02:03:00;102312.56;;;9.70;93.79
8140;BME280;4111;50.972;7.072;2024-01-25T02:05:27;102308.41;;;9.68;94.08
8140;BME280;4111;50.972;7.072;2024-01-25T02:07:53;102312.56;;;9.64;93.99
8140;BME280;4111;50.972;7.072;2024-01-25T02:10:20;102317.09;;;9.57;94.20
8140;BME280;4111;50.972;7.072;2024-01-25T02:12:47;102314.41;;;9.57;93.87
8140;BME280;4111;50.972;7.072;2024-01-25T02:15:13;102316.47;;;9.55;94.18
8140;BME280;4111;50.972;7.072;2024-01-25T02:17:40;102320.00;;;9.55;94.47
8140;BME280;4111;50.972;7.072;2024-01-25T02:20:07;102333.34;;;9.50;94.27
8140;BME280;4111;50.972;7.072;2024-01-25T02:22:34;102334.97;;;9.44;94.31
8140;BME280;4111;50.972;7.072;2024-01-25T02:25:01;102346.03;;;9.43;94.65
8140;BME280;4111;50.972;7.072;2024-01-25T02:27:28;102351.25;;;9.44;94.67
8140;BME280;4111;50.972;7.072;2024-01-25T02:29:54;102359.19;;;9.46;94.81
8140;BME280;4111;50.972;7.072;2024-01-25T02:32:21;102361.25;;;9.44;95.16
8140;BME280;4111;50.972;7.072;2024-01-25T02:34:48;102365.44;;;9.46;95.03
8140;BME280;4111;50.972;7.072;2024-01-25T02:37:15;102366.72;;;9.50;95.38
8140;BME280;4111;50.972;7.072;2024-01-25T02:39:42;102365.03;;;9.49;95.55
8140;BME280;4111;50.972;7.072;2024-01-25T02:42:08;102369.63;;;9.49;95.36
8140;BME280;4111;50.972;7.072;2024-01-25T02:44:35;102363.81;;;9.52;95.89
8140;BME280;4111;50.972;7.072;2024-01-25T02:47:01;102365.72;;;9.58;95.68
8140;BME280;4111;50.972;7.072;2024-01-25T02:49:28;102370.50;;;9.56;95.54
8140;BME280;4111;50.972;7.072;2024-01-25T02:51:55;102364.22;;;9.56;95.40
8140;BME280;4111;50.972;7.072;2024-01-25T02:54:21;102361.50;;;9.49;95.57
8140;BME280;4111;50.972;7.072;2024-01-25T02:56:48;102362.09;;;9.44;95.81
8140;BME280;4111;50.972;7.072;2024-01-25T02:59:15;102363.53;;;9.40;96.31
8140;BME280;4111;50.972;7.072;2024-01-25T03:01:42;102366.66;;;9.44;96.11
8140;BME280;4111;50.972;7.072;2024-01-25T03:04:09;102367.53;;;9.44;96.65
8140;BME280;4111;50.972;7.072;2024-01-25T03:06:35;102358.34;;;9.45;95.98
8140;BME280;4111;50.972;7.072;2024-01-25T03:09:03;102362.03;;;9.38;96.29
8140;BME280;4111;50.972;7.072;2024-01-25T03:11:32;102355.81;;;9.44;96.53
8140;BME280;4111;50.972;7.072;2024-01-25T03:13:59;102352.91;;;9.45;96.29
8140;BME280;4111;50.972;7.072;2024-01-25T03:16:26;102350.19;;;9.45;96.38
8140;BME280;4111;50.972;7.072;2024-01-25T03:18:52;102352.91;;;9.45;96.41
8140;BME280;4111;50.972;7.072;2024-01-25T03:21:19;102344.75;;;9.39;96.39
8140;BME280;4111;50.972;7.072;2024-01-25T03:23:46;102343.06;;;9.38;96.83
8140;BME280;4111;50.972;7.072;2024-01-25T03:26:12;102345.59;;;9.39;96.54
8140;BME280;4111;50.972;7.072;2024-01-25T03:28:39;102347.47;;;9.39;96.76
8140;BME280;4111;50.972;7.072;2024-01-25T03:31:06;102350.56;;;9.36;96.94
8140;BME280;4111;50.972;7.072;2024-01-25T03:33:33;102347.84;;;9.36;96.81
8140;BME280;4111;50.972;7.072;2024-01-25T03:36:04;102351.34;;;9.29;97.00
8140;BME280;4111;50.972;7.072;2024-01-25T03:38:31;102351.13;;;9.24;97.07
8140;BME280;4111;50.972;7.072;2024-01-25T03:40:58;102362.69;;;9.11;97.35
8140;BME280;4111;50.972;7.072;2024-01-25T03:43:25;102364.31;;;9.06;97.49
8140;BME280;4111;50.972;7.072;2024-01-25T03:46:01;102369.72;;;9.06;98.07
8140;BME280;4111;50.972;7.072;2024-01-25T03:48:30;102368.72;;;9.07;98.32
8140;BME280;4111;50.972;7.072;2024-01-25T03:50:57;102368.72;;;9.07;98.14
8140;BME280;4111;50.972;7.072;2024-01-25T03:53:23;102373.50;;;9.05;98.28
8140;BME280;4111;50.972;7.072;2024-01-25T03:55:50;102363.03;;;9.02;98.35
8140;BME280;4111;50.972;7.072;2024-01-25T03:58:17;102369.06;;;8.97;98.38
8140;BME280;4111;50.972;7.072;2024-01-25T04:00:47;102378.84;;;8.98;98.54
8140;BME280;4111;50.972;7.072;2024-01-25T04:03:14;102376.34;;;8.97;98.84
8140;BME280;4111;50.972;7.072;2024-01-25T04:05:40;102390.91;;;8.96;98.65
8140;BME280;4111;50.972;7.072;2024-01-25T04:08:07;102391.28;;;8.92;98.77
8140;BME280;4111;50.972;7.072;2024-01-25T04:10:34;102385.88;;;8.92;98.84
8140;BME280;4111;50.972;7.072;2024-01-25T04:13:01;102393.75;;;8.87;98.99
8140;BME280;4111;50.972;7.072;2024-01-25T04:15:28;102393.34;;;8.90;99.21
8140;BME280;4111;50.972;7.072;2024-01-25T04:17:55;102388.34;;;8.87;98.96
8140;BME280;4111;50.972;7.072;2024-01-25T04:20:22;102397.31;;;8.88;98.99
8140;BME280;4111;50.972;7.072;2024-01-25T04:22:49;102400.47;;;8.91;99.32
8140;BME280;4111;50.972;7.072;2024-01-25T04:25:16;102404.00;;;8.92;99.23
8140;BME280;4111;50.972;7.072;2024-01-25T04:27:42;102412.31;;;8.90;99.03
8140;BME280;4111;50.972;7.072;2024-01-25T04:30:09;102410.03;;;8.87;98.74
8140;BME280;4111;50.972;7.072;2024-01-25T04:32:36;102407.97;;;8.89;99.24
8140;BME280;4111;50.972;7.072;2024-01-25T04:35:03;102412.97;;;8.92;99.41
8140;BME280;4111;50.972;7.072;2024-01-25T04:37:30;102414.00;;;8.91;99.32
8140;BME280;4111;50.972;7.072;2024-01-25T04:39:56;102413.75;;;8.86;98.96
8140;BME280;4111;50.972;7.072;2024-01-25T04:42:25;102407.78;;;8.91;99.18
8140;BME280;4111;50.972;7.072;2024-01-25T04:44:51;102399.63;;;8.91;99.04
8140;BME280;4111;50.972;7.072;2024-01-25T04:47:18;102392.47;;;8.83;98.90
8140;BME280;4111;50.972;7.072;2024-01-25T04:49:44;102394.94;;;8.78;98.90
8140;BME280;4111;50.972;7.072;2024-01-25T04:52:11;102396.75;;;8.71;99.12
8140;BME280;4111;50.972;7.072;2024-01-25T04:54:38;102399.84;;;8.68;99.14
8140;BME280;4111;50.972;7.072;2024-01-25T04:57:04;102402.72;;;8.66;99.39
8140;BME280;4111;50.972;7.072;2024-01-25T04:59:33;102405.25;;;8.68;99.71
8140;BME280;4111;50.972;7.072;2024-01-25T05:02:00;102411.72;;;8.67;99.52
8140;BME280;4111;50.972;7.072;2024-01-25T05:04:28;102410.19;;;8.64;99.61
8140;BME280;4111;50.972;7.072;2024-01-25T05:06:55;102418.13;;;8.66;99.38
8140;BME280;4111;50.972;7.072;2024-01-25T05:09:22;102411.03;;;8.65;99.56
8140;BME280;4111;50.972;7.072;2024-01-25T05:11:49;102418.91;;;8.60;99.62
8140;BME280;4111;50.972;7.072;2024-01-25T05:14:17;102415.56;;;8.58;99.10
8140;BME280;4111;50.972;7.072;2024-01-25T05:16:43;102409.69;;;8.54;99.17
8140;BME280;4111;50.972;7.072;2024-01-25T05:19:10;102412.13;;;8.49;98.79
8140;BME280;4111;50.972;7.072;2024-01-25T05:21:37;102404.59;;;8.44;98.93
8140;BME280;4111;50.972;7.072;2024-01-25T05:24:03;102398.63;;;8.34;99.01
8140;BME280;4111;50.972;7.072;2024-01-25T05:26:30;102392.66;;;8.24;98.93
8140;BME280;4111;50.972;7.072;2024-01-25T05:28:56;102401.75;;;8.16;99.01
8140;BME280;4111;50.972;7.072;2024-01-25T05:31:23;102407.44;;;8.06;98.90
8140;BME280;4111;50.972;7.072;2024-01-25T05:33:50;102410.50;;;8.03;99.08
8140;BME280;4111;50.972;7.072;2024-01-25T05:36:16;102405.75;;;8.05;99.15
8140;BME280;4111;50.972;7.072;2024-01-25T05:38:43;102409.84;;;8.01;99.09
8140;BME280;4111;50.972;7.072;2024-01-25T05:41:09;102410.63;;;7.95;98.78
8140;BME280;4111;50.972;7.072;2024-01-25T05:43:37;102402.59;;;7.87;99.14
8140;BME280;4111;50.972;7.072;2024-01-25T05:46:03;102412.47;;;7.80;99.57
8140;BME280;4111;50.972;7.072;2024-01-25T05:48:30;102398.97;;;7.80;99.34
8140;BME280;4111;50.972;7.072;2024-01-25T05:50:57;102393.66;;;7.71;99.06
8140;BME280;4111;50.972;7.072;2024-01-25T05:53:24;102397.69;;;7.61;99.13
8140;BME280;4111;50.972;7.072;2024-01-25T05:55:50;102408.66;;;7.59;99.40
8140;BME280;4111;50.972;7.072;2024-01-25T05:58:17;102409.41;;;7.53;99.84
8140;BME280;4111;50.972;7.072;2024-01-25T06:00:44;102417.06;;;7.49;99.35
8140;BME280;4111;50.972;7.072;2024-01-25T06:03:10;102418.91;;;7.49;99.19
8140;BME280;4111;50.972;7.072;2024-01-25T06:05:37;102427.78;;;7.43;99.66
8140;BME280;4111;50.972;7.072;2024-01-25T06:08:04;102437.63;;;7.35;99.33
8140;BME280;4111;50.972;7.072;2024-01-25T06:10:30;102429.94;;;7.24;99.24
8140;BME280;4111;50.972;7.072;2024-01-25T06:12:57;102426.97;;;7.19;99.28
8140;BME280;4111;50.972;7.072;2024-01-25T06:15:24;102427.72;;;7.13;99.25
8140;BME280;4111;50.972;7.072;2024-01-25T06:17:50;102442.47;;;7.02;99.30
8140;BME280;4111;50.972;7.072;2024-01-25T06:20:17;102437.91;;;7.03;99.40
8140;BME280;4111;50.972;7.072;2024-01-25T06:22:44;102440.59;;;7.03;99.37
8140;BME280;4111;50.972;7.072;2024-01-25T06:25:10;102443.19;;;6.96;99.21
8140;BME280;4111;50.972;7.072;2024-01-25T06:27:37;102446.44;;;6.91;98.76
8140;BME280;4111;50.972;7.072;2024-01-25T06:30:04;102448.84;;;6.86;99.13
8140;BME280;4111;50.972;7.072;2024-01-25T06:32:31;102459.31;;;6.81;98.78
8140;BME280;4111;50.972;7.072;2024-01-25T06:34:57;102468.28;;;6.82;99.03
8140;BME280;4111;50.972;7.072;2024-01-25T06:37:24;102464.06;;;6.79;98.89
8140;BME280;4111;50.972;7.072;2024-01-25T06:39:51;102462.03;;;6.81;99.18
8140;BME280;4111;50.972;7.072;2024-01-25T06:42:17;102467.31;;;6.74;98.84
8140;BME280;4111;50.972;7.072;2024-01-25T06:44:44;102474.13;;;6.62;98.58
8140;BME280;4111;50.972;7.072;2024-01-25T06:47:10;102466.88;;;6.63;98.48
8140;BME280;4111;50.972;7.072;2024-01-25T06:49:37;102472.28;;;6.63;98.30
8140;BME280;4111;50.972;7.072;2024-01-25T06:52:04;102471.63;;;6.61;98.62
8140;BME280;4111;50.972;7.072;2024-01-25T06:54:31;102475.19;;;6.53;98.54
8140;BME280;4111;50.972;7.072;2024-01-25T06:56:58;102478.06;;;6.51;98.82
8140;BME280;4111;50.972;7.072;2024-01-25T06:59:24;102494.56;;;6.25;99.18
8140;BME280;4111;50.972;7.072;2024-01-25T07:01:51;102493.97;;;5.99;100.00
8140;BME280;4111;50.972;7.072;2024-01-25T07:04:18;102514.50;;;5.91;100.00
8140;BME280;4111;50.972;7.072;2024-01-25T07:06:45;102504.56;;;5.92;100.00
8140;BME280;4111;50.972;7.072;2024-01-25T07:09:12;102503.91;;;5.98;100.00
8140;BME280;4111;50.972;7.072;2024-01-25T07:11:38;102507.09;;;5.93;100.00
8140;BME280;4111;50.972;7.072;2024-01-25T07:14:04;102500.53;;;5.88;100.00
8140;BME280;4111;50.972;7.072;2024-01-25T07:16:31;102494.31;;;5.87;100.00
8140;BME280;4111;50.972;7.072;2024-01-25T07:18:57;102491.75;;;5.94;100.00
8140;BME280;4111;50.972;7.072;2024-01-25T07:21:24;102497.16;;;5.94;100.00
8140;BME280;4111;50.972;7.072;2024-01-25T07:23:50;102496.47;;;6.00;100.00
8140;BME280;4111;50.972;7.072;2024-01-25T07:26:18;102509.47;;;6.05;100.00
8140;BME280;4111;50.972;7.072;2024-01-25T07:28:44;102505.25;;;6.02;100.00
8140;BME280;4111;50.972;7.072;2024-01-25T07:31:12;102512.34;;;5.87;100.00
8140;BME280;4111;50.972;7.072;2024-01-25T07:33:39;102517.56;;;5.80;100.00
8140;BME280;4111;50.972;7.072;2024-01-25T07:36:06;102510.31;;;5.89;100.00
8140;BME280;4111;50.972;7.072;2024-01-25T07:38:32;102507.25;;;5.92;100.00
8140;BME280;4111;50.972;7.072;2024-01-25T07:40:59;102518.72;;;5.94;100.00
8140;BME280;4111;50.972;7.072;2024-01-25T07:43:25;102513.88;;;5.73;100.00
8140;BME280;4111;50.972;7.072;2024-01-25T07:45:52;102517.75;;;5.70;100.00
8140;BME280;4111;50.972;7.072;2024-01-25T07:48:20;102515.72;;;5.81;100.00
8140;BME280;4111;50.972;7.072;2024-01-25T07:50:47;102518.06;;;5.84;100.00
8140;BME280;4111;50.972;7.072;2024-01-25T07:53:13;102526.00;;;5.85;100.00
8140;BME280;4111;50.972;7.072;2024-01-25T07:55:42;102517.88;;;5.93;100.00
8140;BME280;4111;50.972;7.072;2024-01-25T07:58:09;102518.56;;;6.04;100.00
8140;BME280;4111;50.972;7.072;2024-01-25T08:00:35;102525.78;;;6.11;100.00
8140;BME280;4111;50.972;7.072;2024-01-25T08:03:02;102527.81;;;6.09;100.00
8140;BME280;4111;50.972;7.072;2024-01-25T08:05:29;102519.72;;;6.09;100.00
8140;BME280;4111;50.972;7.072;2024-01-25T08:08:09;102526.31;;;6.07;100.00
8140;BME280;4111;50.972;7.072;2024-01-25T08:10:36;102531.22;;;5.87;100.00
8140;BME280;4111;50.972;7.072;2024-01-25T08:13:03;102532.22;;;5.86;100.00
8140;BME280;4111;50.972;7.072;2024-01-25T08:15:33;102526.69;;;5.71;100.00
8140;BME280;4111;50.972;7.072;2024-01-25T08:18:00;102527.84;;;5.68;100.00
8140;BME280;4111;50.972;7.072;2024-01-25T08:20:27;102530.72;;;5.83;100.00
8140;BME280;4111;50.972;7.072;2024-01-25T08:22:55;102531.25;;;5.79;100.00
8140;BME280;4111;50.972;7.072;2024-01-25T08:25:21;102529.88;;;5.74;100.00
8140;BME280;4111;50.972;7.072;2024-01-25T08:27:48;102525.16;;;5.85;100.00
8140;BME280;4111;50.972;7.072;2024-01-25T08:30:14;102515.34;;;6.08;100.00
8140;BME280;4111;50.972;7.072;2024-01-25T08:32:41;102516.28;;;6.24;100.00
8140;BME280;4111;50.972;7.072;2024-01-25T08:35:08;102514.22;;;6.42;100.00
8140;BME280;4111;50.972;7.072;2024-01-25T08:37:35;102521.25;;;6.51;100.00
8140;BME280;4111;50.972;7.072;2024-01-25T08:40:04;102513.66;;;6.55;100.00
8140;BME280;4111;50.972;7.072;2024-01-25T08:42:33;102519.44;;;6.44;100.00
8140;BME280;4111;50.972;7.072;2024-01-25T08:44:59;102509.06;;;6.55;100.00
8140;BME280;4111;50.972;7.072;2024-01-25T08:47:26;102513.25;;;6.66;100.00
8140;BME280;4111;50.972;7.072;2024-01-25T08:49:53;102509.00;;;6.72;100.00
8140;BME280;4111;50.972;7.072;2024-01-25T08:52:20;102510.63;;;6.81;100.00
8140;BME280;4111;50.972;7.072;2024-01-25T08:54:46;102511.25;;;6.91;100.00
8140;BME280;4111;50.972;7.072;2024-01-25T08:57:13;102518.94;;;7.03;100.00
8140;BME280;4111;50.972;7.072;2024-01-25T08:59:41;102516.06;;;7.04;100.00
8140;BME280;4111;50.972;7.072;2024-01-25T09:02:09;102511.63;;;7.11;100.00
8140;BME280;4111;50.972;7.072;2024-01-25T09:04:36;102504.19;;;7.13;100.00
8140;BME280;4111;50.972;7.072;2024-01-25T09:07:03;102511.88;;;7.25;100.00
8140;BME280;4111;50.972;7.072;2024-01-25T09:09:30;102505.84;;;7.38;100.00
8140;BME280;4111;50.972;7.072;2024-01-25T09:11:57;102501.75;;;7.42;100.00
8140;BME280;4111;50.972;7.072;2024-01-25T09:14:24;102501.16;;;7.54;100.00
8140;BME280;4111;50.972;7.072;2024-01-25T09:16:50;102507.00;;;7.58;100.00
8140;BME280;4111;50.972;7.072;2024-01-25T09:19:16;102513.03;;;7.68;100.00
8140;BME280;4111;50.972;7.072;2024-01-25T09:21:43;102519.72;;;7.72;100.00
8140;BME280;4111;50.972;7.072;2024-01-25T09:24:10;102524.28;;;7.72;100.00
8140;BME280;4111;50.972;7.072;2024-01-25T09:26:36;102519.16;;;7.62;100.00
8140;BME280;4111;50.972;7.072;2024-01-25T09:29:03;102516.38;;;7.70;100.00
8140;BME280;4111;50.972;7.072;2024-01-25T09:31:31;102514.59;;;7.78;100.00
8140;BME280;4111;50.972;7.072;2024-01-25T09:33:58;102521.97;;;7.84;100.00
8140;BME280;4111;50.972;7.072;2024-01-25T09:36:24;102532.44;;;7.87;100.00
8140;BME280;4111;50.972;7.072;2024-01-25T09:38:51;102538.13;;;8.07;100.00
8140;BME280;4111;50.972;7.072;2024-01-25T09:41:18;102541.50;;;8.24;100.00
8140;BME280;4111;50.972;7.072;2024-01-25T09:43:45;102535.59;;;8.35;100.00
8140;BME280;4111;50.972;7.072;2024-01-25T09:46:13;102527.06;;;8.46;100.00
8140;BME280;4111;50.972;7.072;2024-01-25T09:48:43;102521.81;;;8.60;100.00
8140;BME280;4111;50.972;7.072;2024-01-25T09:51:13;102519.06;;;8.74;100.00
8140;BME280;4111;50.972;7.072;2024-01-25T09:53:41;102524.22;;;8.69;100.00
8140;BME280;4111;50.972;7.072;2024-01-25T09:56:09;102529.88;;;8.74;100.00
8140;BME280;4111;50.972;7.072;2024-01-25T10:01:03;102532.13;;;8.86;100.00
8140;BME280;4111;50.972;7.072;2024-01-25T10:03:30;102520.03;;;8.88;100.00
8140;BME280;4111;50.972;7.072;2024-01-25T10:05:57;102520.13;;;8.95;100.00
8140;BME280;4111;50.972;7.072;2024-01-25T10:08:24;102534.84;;;9.07;100.00
8140;BME280;4111;50.972;7.072;2024-01-25T10:10:51;102551.56;;;9.11;100.00
8140;BME280;4111;50.972;7.072;2024-01-25T10:13:19;102555.84;;;9.20;100.00
8140;BME280;4111;50.972;7.072;2024-01-25T10:15:46;102561.78;;;9.30;100.00
8140;BME280;4111;50.972;7.072;2024-01-25T10:18:15;102566.44;;;9.37;99.96
8140;BME280;4111;50.972;7.072;2024-01-25T10:20:55;102558.34;;;9.43;99.24
8140;BME280;4111;50.972;7.072;2024-01-25T10:23:22;102548.59;;;9.49;99.38
8140;BME280;4111;50.972;7.072;2024-01-25T10:25:49;102547.81;;;9.55;99.08
8140;BME280;4111;50.972;7.072;2024-01-25T10:28:17;102533.00;;;9.58;98.55
8140;BME280;4111;50.972;7.072;2024-01-25T10:30:43;102534.03;;;9.50;98.08
8140;BME280;4111;50.972;7.072;2024-01-25T10:33:11;102524.69;;;9.59;97.88
8140;BME280;4111;50.972;7.072;2024-01-25T10:35:39;102523.66;;;9.60;97.55
8140;BME280;4111;50.972;7.072;2024-01-25T10:38:08;102528.75;;;9.70;97.70
8140;BME280;4111;50.972;7.072;2024-01-25T10:40:35;102517.94;;;9.77;97.66
8140;BME280;4111;50.972;7.072;2024-01-25T10:43:02;102527.63;;;9.86;97.10
8140;BME280;4111;50.972;7.072;2024-01-25T10:45:29;102529.75;;;9.97;97.41
8140;BME280;4111;50.972;7.072;2024-01-25T10:47:59;102529.22;;;10.08;97.10
8140;BME280;4111;50.972;7.072;2024-01-25T10:50:25;102526.13;;;10.11;96.46
8140;BME280;4111;50.972;7.072;2024-01-25T10:52:52;102514.47;;;10.18;96.40
8140;BME280;4111;50.972;7.072;2024-01-25T10:55:20;102503.97;;;10.15;96.03
8140;BME280;4111;50.972;7.072;2024-01-25T10:57:47;102502.75;;;10.17;95.55
8140;BME280;4111;50.972;7.072;2024-01-25T11:00:17;102498.38;;;10.23;96.12
8140;BME280;4111;50.972;7.072;2024-01-25T11:02:45;102493.63;;;10.25;95.47
8140;BME280;4111;50.972;7.072;2024-01-25T11:05:13;102486.03;;;10.13;94.63
8140;BME280;4111;50.972;7.072;2024-01-25T11:07:44;102491.47;;;10.13;93.90
8140;BME280;4111;50.972;7.072;2024-01-25T11:10:14;102492.38;;;10.27;93.49
8140;BME280;4111;50.972;7.072;2024-01-25T11:12:49;102484.72;;;10.38;93.05
8140;BME280;4111;50.972;7.072;2024-01-25T11:15:23;102480.56;;;10.48;92.44
8140;BME280;4111;50.972;7.072;2024-01-25T11:17:51;102473.28;;;10.56;91.53
8140;BME280;4111;50.972;7.072;2024-01-25T11:20:24;102453.69;;;10.67;90.76
8140;BME280;4111;50.972;7.072;2024-01-25T11:22:57;102456.22;;;10.75;90.03
8140;BME280;4111;50.972;7.072;2024-01-25T11:25:30;102452.25;;;10.78;88.88
8140;BME280;4111;50.972;7.072;2024-01-25T11:27:59;102447.00;;;10.76;87.72
8140;BME280;4111;50.972;7.072;2024-01-25T11:30:26;102452.44;;;10.76;87.15
8140;BME280;4111;50.972;7.072;2024-01-25T11:32:53;102455.63;;;10.86;87.14
8140;BME280;4111;50.972;7.072;2024-01-25T11:35:19;102445.19;;;10.90;87.07
8140;BME280;4111;50.972;7.072;2024-01-25T11:37:51;102441.41;;;10.91;86.83
8140;BME280;4111;50.972;7.072;2024-01-25T11:40:18;102441.81;;;10.95;86.81
8140;BME280;4111;50.972;7.072;2024-01-25T11:42:48;102441.63;;;10.96;86.82
8140;BME280;4111;50.972;7.072;2024-01-25T11:45:15;102442.25;;;10.98;85.69
8140;BME280;4111;50.972;7.072;2024-01-25T11:47:42;102437.44;;;11.07;85.89
8140;BME280;4111;50.972;7.072;2024-01-25T11:50:11;102439.31;;;11.06;85.03
8140;BME280;4111;50.972;7.072;2024-01-25T11:52:38;102433.25;;;11.11;84.72
8140;BME280;4111;50.972;7.072;2024-01-25T11:55:09;102427.81;;;11.11;84.61
8140;BME280;4111;50.972;7.072;2024-01-25T11:57:42;102421.75;;;11.16;84.24
8140;BME280;4111;50.972;7.072;2024-01-25T12:00:12;102419.03;;;11.22;83.59
8140;BME280;4111;50.972;7.072;2024-01-25T12:02:40;102428.25;;;11.28;82.95
8140;BME280;4111;50.972;7.072;2024-01-25T12:05:10;102430.75;;;11.29;82.66
8140;BME280;4111;50.972;7.072;2024-01-25T12:07:39;102420.28;;;11.26;82.41
8140;BME280;4111;50.972;7.072;2024-01-25T12:10:07;102410.25;;;11.20;82.26
8140;BME280;4111;50.972;7.072;2024-01-25T12:12:36;102403.56;;;11.16;82.32
8140;BME280;4111;50.972;7.072;2024-01-25T12:15:07;102390.59;;;11.18;82.17
8140;BME280;4111;50.972;7.072;2024-01-25T12:17:34;102408.16;;;11.09;81.97
8140;BME280;4111;50.972;7.072;2024-01-25T12:20:06;102408.16;;;11.22;81.90
8140;BME280;4111;50.972;7.072;2024-01-25T12:22:38;102403.97;;;11.13;80.49
8140;BME280;4111;50.972;7.072;2024-01-25T12:25:09;102397.50;;;11.14;79.82
8140;BME280;4111;50.972;7.072;2024-01-25T12:27:40;102388.50;;;11.20;79.45
8140;BME280;4111;50.972;7.072;2024-01-25T12:30:13;102383.69;;;11.22;78.73
8140;BME280;4111;50.972;7.072;2024-01-25T12:32:40;102390.59;;;11.31;78.82
8140;BME280;4111;50.972;7.072;2024-01-25T12:35:07;102389.31;;;11.34;78.92
8140;BME280;4111;50.972;7.072;2024-01-25T12:37:35;102380.97;;;11.22;78.28
8140;BME280;4111;50.972;7.072;2024-01-25T12:40:02;102385.78;;;11.34;78.59
8140;BME280;4111;50.972;7.072;2024-01-25T12:42:29;102371.75;;;11.23;78.44
8140;BME280;4111;50.972;7.072;2024-01-25T12:44:55;102372.19;;;11.34;78.50
8140;BME280;4111;50.972;7.072;2024-01-25T12:47:22;102369.47;;;11.34;78.28
8140;BME280;4111;50.972;7.072;2024-01-25T12:49:49;102385.34;;;11.37;77.86
8140;BME280;4111;50.972;7.072;2024-01-25T12:52:15;102383.88;;;11.41;77.83
8140;BME280;4111;50.972;7.072;2024-01-25T12:54:43;102385.75;;;11.40;77.53
8140;BME280;4111;50.972;7.072;2024-01-25T12:57:10;102366.06;;;11.45;77.54
8140;BME280;4111;50.972;7.072;2024-01-25T12:59:37;102360.88;;;11.43;77.40
8140;BME280;4111;50.972;7.072;2024-01-25T13:02:06;102373.19;;;11.46;77.19
8140;BME280;4111;50.972;7.072;2024-01-25T13:04:33;102374.28;;;11.31;76.83
8140;BME280;4111;50.972;7.072;2024-01-25T13:07:00;102361.28;;;11.27;76.39
8140;BME280;4111;50.972;7.072;2024-01-25T13:09:27;102355.44;;;11.23;75.94
8140;BME280;4111;50.972;7.072;2024-01-25T13:11:56;102348.53;;;11.27;75.99
8140;BME280;4111;50.972;7.072;2024-01-25T13:14:23;102341.81;;;11.37;76.30
8140;BME280;4111;50.972;7.072;2024-01-25T13:16:50;102340.34;;;11.41;76.24